Time;durP1;ratioP1;P1;durP2;ratioP2;P2;SDS_P1;SDS_P2;PMS_P1;PMS_P2;Temp;Humidity;BMP_temperature;BMP_pressure;BME280_temperature;BME280_humidity;BME280_pressure;Samples;Min_cycle;Max_cycle;Signal;HPM_P1;HPM_P2
2021/08/14 00:01:23;;;;;;;18.50;3.55;;;17.40;99.90;;;;;;4149945;28;20181;-90
2021/08/14 00:03:23;;;;;;;11.50;3.20;;;17.30;99.90;;;;;;4133663;28;20223;-91
2021/08/14 00:05:26;;;;;;;17.55;3.60;;;17.30;99.90;;;;;;4149992;28;20719;-91
2021/08/14 00:07:27;;;;;;;17.42;3.40;;;17.20;99.90;;;;;;4133422;28;20165;-90
2021/08/14 00:09:28;;;;;;;27.80;4.00;;;17.20;99.90;;;;;;4166098;28;20184;-90
2021/08/14 00:11:28;;;;;;;13.57;3.22;;;17.00;99.90;;;;;;4149906;28;20195;-90
2021/08/14 00:13:29;;;;;;;16.42;3.38;;;17.00;99.90;;;;;;4149978;28;20264;-90
2021/08/14 00:15:30;;;;;;;16.48;3.08;;;17.00;99.90;;;;;;4149382;28;20371;-90
2021/08/14 00:17:30;;;;;;;10.98;3.10;;;17.10;99.90;;;;;;4149940;28;20169;-90
2021/08/14 00:19:31;;;;;;;16.42;3.50;;;17.10;99.90;;;;;;4133432;28;20181;-90
2021/08/14 00:21:32;;;;;;;22.25;3.42;;;17.10;99.90;;;;;;4149459;28;20192;-90
2021/08/14 00:23:33;;;;;;;16.60;3.35;;;17.10;99.90;;;;;;4149207;28;20550;-90
2021/08/14 00:25:34;;;;;;;13.63;3.50;;;17.20;99.90;;;;;;4133296;28;20252;-90
2021/08/14 00:27:34;;;;;;;14.10;3.33;;;17.20;99.90;;;;;;4149391;28;20626;-90
2021/08/14 00:29:36;;;;;;;18.65;3.80;;;17.20;99.90;;;;;;4133304;28;20753;-90
2021/08/14 00:31:36;;;;;;;12.52;3.45;;;17.20;99.90;;;;;;4149727;28;20186;-91
2021/08/14 00:33:37;;;;;;;20.10;3.38;;;17.20;99.90;;;;;;4133132;28;20195;-90
2021/08/14 00:35:38;;;;;;;19.42;3.47;;;17.20;99.90;;;;;;4165490;28;20672;-90
2021/08/14 00:37:39;;;;;;;18.38;3.92;;;17.20;99.90;;;;;;4149152;28;20169;-90
2021/08/14 00:39:40;;;;;;;15.50;3.58;;;17.20;99.90;;;;;;4149243;28;20176;-91
2021/08/14 00:41:40;;;;;;;16.48;3.60;;;17.20;99.90;;;;;;4133125;28;20181;-90
2021/08/14 00:43:43;;;;;;;11.75;3.05;;;17.20;99.90;;;;;;4149289;28;20165;-91
2021/08/14 00:45:45;;;;;;;17.83;3.40;;;17.20;99.90;;;;;;4165562;28;20700;-90
2021/08/14 00:47:46;;;;;;;16.92;3.92;;;17.10;99.90;;;;;;4149138;28;20544;-90
2021/08/14 00:49:47;;;;;;;14.98;3.65;;;17.10;99.90;;;;;;4165783;28;21102;-90
2021/08/14 00:51:48;;;;;;;12.95;3.58;;;17.00;99.90;;;;;;4149192;28;20573;-91
2021/08/14 00:53:49;;;;;;;18.58;3.83;;;17.00;99.90;;;;;;4148867;28;20676;-89
2021/08/14 00:55:51;;;;;;;19.17;4.40;;;17.00;99.90;;;;;;4132610;28;20217;-90
2021/08/14 00:57:51;;;;;;;18.38;3.88;;;16.90;99.90;;;;;;4132802;28;20232;-90
2021/08/14 00:59:52;;;;;;;15.77;3.50;;;16.80;99.90;;;;;;4149054;28;20259;-90
2021/08/14 01:01:54;;;;;;;13.45;3.80;;;16.90;99.90;;;;;;4149026;28;20243;-91
2021/08/14 01:03:55;;;;;;;18.95;3.67;;;16.90;99.90;;;;;;4149169;28;20180;-89
2021/08/14 01:05:56;;;;;;;16.40;3.70;;;16.90;99.90;;;;;;4148870;28;20201;-90
2021/08/14 01:07:57;;;;;;;17.50;3.35;;;16.90;99.90;;;;;;4149148;28;20268;-90
2021/08/14 01:09:57;;;;;;;18.55;4.03;;;16.90;99.90;;;;;;4132583;28;20177;-90
2021/08/14 01:12:01;;;;;;;20.55;4.10;;;16.80;99.90;;;;;;4148680;28;20199;-89
2021/08/14 01:14:02;;;;;;;20.48;3.92;;;16.70;99.90;;;;;;4148592;28;20244;-91
2021/08/14 01:16:04;;;;;;;20.90;3.78;;;16.70;99.90;;;;;;4165083;28;20579;-89
2021/08/14 01:18:05;;;;;;;19.02;3.88;;;16.70;99.90;;;;;;4149027;28;20180;-90
2021/08/14 01:20:06;;;;;;;18.25;3.80;;;16.70;99.90;;;;;;4148922;28;20172;-89
2021/08/14 01:22:12;;;;;;;21.23;3.95;;;16.70;99.90;;;;;;4148919;28;20176;-90
2021/08/14 01:24:13;;;;;;;19.92;3.78;;;16.70;99.90;;;;;;4148767;28;20212;-89
2021/08/14 01:26:14;;;;;;;20.98;3.50;;;16.70;99.90;;;;;;4148608;28;20200;-91
2021/08/14 01:28:15;;;;;;;13.77;3.42;;;16.70;99.90;;;;;;4132409;28;20265;-90
2021/08/14 01:30:15;;;;;;;22.85;3.53;;;16.60;99.90;;;;;;4148635;28;20176;-90
2021/08/14 01:32:16;;;;;;;17.60;3.40;;;16.50;99.90;;;;;;4132357;28;20616;-90
2021/08/14 01:34:20;;;;;;;17.52;3.35;;;16.40;99.90;;;;;;4148272;28;20165;-91
2021/08/14 01:36:20;;;;;;;17.42;3.63;;;16.30;99.90;;;;;;4148503;28;20241;-90
2021/08/14 01:38:21;;;;;;;19.08;3.95;;;16.30;99.90;;;;;;4164564;28;20176;-90
2021/08/14 01:40:22;;;;;;;15.48;3.40;;;16.20;99.90;;;;;;4132434;28;20260;-90
2021/08/14 01:42:23;;;;;;;15.50;3.90;;;16.20;99.90;;;;;;4148778;28;20281;-90
2021/08/14 01:44:24;;;;;;;23.52;4.07;;;16.20;99.90;;;;;;4132502;28;20173;-90
2021/08/14 01:46:27;;;;;;;17.60;3.42;;;16.20;99.90;;;;;;4132157;28;20240;-88
2021/08/14 01:48:28;;;;;;;21.20;4.00;;;16.10;99.90;;;;;;4148327;28;20180;-89
2021/08/14 01:50:29;;;;;;;16.10;3.88;;;16.10;99.90;;;;;;4148421;28;20561;-89
2021/08/14 01:52:29;;;;;;;24.42;4.18;;;16.00;99.90;;;;;;4132208;28;20193;-90
2021/08/14 01:54:30;;;;;;;17.98;4.20;;;15.90;99.90;;;;;;4132255;28;20591;-89
2021/08/14 01:56:32;;;;;;;26.90;4.38;;;15.80;99.90;;;;;;4147945;28;20216;-90
2021/08/14 01:58:32;;;;;;;16.33;3.90;;;15.80;99.90;;;;;;4148244;28;20180;-89
2021/08/14 02:00:33;;;;;;;18.38;3.63;;;15.80;99.90;;;;;;4148376;28;20177;-90
2021/08/14 02:02:34;;;;;;;24.88;3.90;;;15.80;99.90;;;;;;4132289;28;20508;-90
2021/08/14 02:04:34;;;;;;;15.15;3.88;;;15.80;99.90;;;;;;4148559;28;20226;-90
2021/08/14 02:06:35;;;;;;;17.27;4.32;;;15.80;99.90;;;;;;4132056;28;20196;-90
2021/08/14 02:08:36;;;;;;;12.35;3.60;;;15.80;99.90;;;;;;4148046;28;20267;-90
2021/08/14 02:10:37;;;;;;;21.27;3.70;;;15.80;99.90;;;;;;4148215;28;20192;-90
2021/08/14 02:12:38;;;;;;;15.10;4.22;;;15.80;99.90;;;;;;4164476;28;20246;-89
2021/08/14 02:14:38;;;;;;;18.83;3.90;;;15.80;99.90;;;;;;4148306;28;20179;-89
2021/08/14 02:16:39;;;;;;;16.17;4.07;;;15.80;99.90;;;;;;4147993;28;20585;-89
2021/08/14 02:18:41;;;;;;;20.38;3.92;;;15.80;99.90;;;;;;4131952;28;20630;-90
2021/08/14 02:20:41;;;;;;;20.40;4.07;;;15.80;99.90;;;;;;4131776;28;20185;-90
2021/08/14 02:22:42;;;;;;;12.77;3.83;;;15.80;99.90;;;;;;4164143;28;20255;-90
2021/08/14 02:24:43;;;;;;;20.52;4.43;;;15.70;99.90;;;;;;4131726;28;20269;-90
2021/08/14 02:26:43;;;;;;;18.02;3.80;;;15.70;99.90;;;;;;4148200;28;20207;-90
2021/08/14 02:28:44;;;;;;;18.70;4.28;;;15.70;99.90;;;;;;4148144;28;20646;-90
2021/08/14 02:30:45;;;;;;;16.70;4.30;;;15.70;99.90;;;;;;4132037;28;20753;-90
2021/08/14 02:32:47;;;;;;;20.63;4.65;;;15.60;99.90;;;;;;4147998;28;20181;-89
2021/08/14 02:34:47;;;;;;;17.27;4.25;;;15.60;99.90;;;;;;4147964;28;20276;-91
2021/08/14 02:36:48;;;;;;;28.50;4.57;;;15.60;99.90;;;;;;4147994;28;20405;-90
2021/08/14 02:38:49;;;;;;;20.67;4.32;;;15.60;99.90;;;;;;4131677;28;20177;-89
2021/08/14 02:40:50;;;;;;;13.68;3.97;;;15.60;99.90;;;;;;4148006;28;20185;-89
2021/08/14 02:42:51;;;;;;;25.38;4.40;;;15.50;99.90;;;;;;4148221;28;20189;-90
2021/08/14 02:44:51;;;;;;;26.13;4.35;;;15.50;99.90;;;;;;4147827;28;20181;-89
2021/08/14 02:46:52;;;;;;;20.88;4.00;;;15.50;99.90;;;;;;4148366;28;20263;-90
2021/08/14 02:48:52;;;;;;;19.85;4.85;;;15.50;99.90;;;;;;4167258;28;20632;-89
2021/08/14 02:50:54;;;;;;;16.17;4.40;;;15.50;99.90;;;;;;4150813;28;20200;-90
2021/08/14 02:52:55;;;;;;;29.90;4.78;;;15.60;99.90;;;;;;4150799;28;20216;-89
2021/08/14 02:54:56;;;;;;;17.67;4.38;;;15.50;99.90;;;;;;4151122;28;20177;-89
2021/08/14 02:56:56;;;;;;;26.88;5.20;;;15.40;99.90;;;;;;4150822;28;20227;-90
2021/08/14 02:58:57;;;;;;;19.55;4.63;;;15.40;99.90;;;;;;4134688;28;20232;-90
2021/08/14 03:00:58;;;;;;;25.60;4.45;;;15.40;99.90;;;;;;4150837;28;20176;-89
2021/08/14 03:02:59;;;;;;;16.48;4.10;;;15.40;99.90;;;;;;4134426;28;20178;-94
2021/08/14 03:04:59;;;;;;;20.38;4.25;;;15.40;99.90;;;;;;4134643;28;20736;-90
2021/08/14 03:07:00;;;;;;;22.33;4.40;;;15.40;99.90;;;;;;4150569;28;20197;-92
2021/08/14 03:09:01;;;;;;;21.10;5.00;;;15.40;99.90;;;;;;4150779;28;20172;-92
2021/08/14 03:11:01;;;;;;;23.50;4.68;;;15.40;99.90;;;;;;4134430;28;20174;-90
2021/08/14 03:13:02;;;;;;;25.13;4.60;;;15.40;99.90;;;;;;4150499;28;20169;-91
2021/08/14 03:15:04;;;;;;;20.73;4.85;;;15.50;99.90;;;;;;4134056;28;20259;-91
2021/08/14 03:17:05;;;;;;;20.17;4.20;;;15.40;99.90;;;;;;4134173;28;20209;-91
2021/08/14 03:19:06;;;;;;;20.08;5.20;;;15.40;99.90;;;;;;4150593;28;20712;-90
2021/08/14 03:21:06;;;;;;;24.55;5.18;;;15.40;99.90;;;;;;4134204;28;20558;-90
2021/08/14 03:23:07;;;;;;;21.67;5.18;;;15.40;99.90;;;;;;4166452;28;20180;-89
2021/08/14 03:25:08;;;;;;;22.17;4.40;;;15.40;99.90;;;;;;4150254;28;20264;-90
2021/08/14 03:27:09;;;;;;;17.90;4.80;;;15.40;99.90;;;;;;4150559;28;20173;-90
2021/08/14 03:29:09;;;;;;;23.77;4.53;;;15.40;99.90;;;;;;4166816;28;20617;-90
2021/08/14 03:31:10;;;;;;;17.10;4.53;;;15.40;99.90;;;;;;4150628;28;20173;-90
2021/08/14 03:33:11;;;;;;;24.35;4.70;;;15.50;99.90;;;;;;4150096;28;20540;-89
2021/08/14 03:35:14;;;;;;;20.70;4.70;;;15.40;99.90;;;;;;4150289;28;20180;-89
2021/08/14 03:37:14;;;;;;;21.52;5.05;;;15.40;99.90;;;;;;4150026;28;20212;-91
2021/08/14 03:39:15;;;;;;;16.23;4.45;;;15.30;99.90;;;;;;4150135;28;20172;-90
2021/08/14 03:41:15;;;;;;;17.90;4.18;;;15.40;99.90;;;;;;4133805;28;20180;-90
2021/08/14 03:43:19;;;;;;;21.35;4.15;;;15.30;99.90;;;;;;4150354;28;20546;-94
2021/08/14 03:45:19;;;;;;;19.27;4.60;;;15.30;99.90;;;;;;4150347;28;20177;-93
2021/08/14 03:47:20;;;;;;;20.42;4.60;;;15.30;99.90;;;;;;4166639;28;20160;-90
2021/08/14 03:49:21;;;;;;;17.83;4.30;;;15.30;99.90;;;;;;4150254;28;20219;-91
2021/08/14 03:51:21;;;;;;;18.30;5.10;;;15.30;99.90;;;;;;4150184;28;20165;-90
2021/08/14 03:53:22;;;;;;;24.40;4.53;;;15.40;99.90;;;;;;4134157;28;20669;-93
2021/08/14 03:55:23;;;;;;;31.15;4.90;;;15.30;99.90;;;;;;4166474;28;20266;-90
2021/08/14 03:57:25;;;;;;;24.73;4.97;;;15.40;99.90;;;;;;4149715;28;20193;-90
2021/08/14 03:59:26;;;;;;;22.77;4.47;;;15.30;99.90;;;;;;4149883;28;20173;-93
2021/08/14 04:01:27;;;;;;;19.88;4.47;;;15.30;99.90;;;;;;4149928;28;20275;-92
2021/08/14 04:03:28;;;;;;;23.65;5.03;;;15.30;99.90;;;;;;4149867;28;20169;-94
2021/08/14 04:05:28;;;;;;;18.55;4.97;;;15.30;99.90;;;;;;4133596;28;20228;-93
2021/08/14 04:07:29;;;;;;;17.80;4.50;;;15.20;99.90;;;;;;4165930;28;20187;-90
2021/08/14 04:09:29;;;;;;;23.80;4.93;;;15.30;99.90;;;;;;4133652;28;20643;-90
2021/08/14 04:11:30;;;;;;;16.70;4.05;;;15.20;99.90;;;;;;4149557;28;20216;-93
2021/08/14 04:13:31;;;;;;;27.50;4.95;;;15.10;99.90;;;;;;4133671;28;20189;-89
2021/08/14 04:15:31;;;;;;;20.60;4.70;;;15.10;99.90;;;;;;4133046;28;20221;-90
2021/08/14 04:17:32;;;;;;;19.55;4.60;;;15.00;99.90;;;;;;4149477;28;20184;-90
2021/08/14 04:19:33;;;;;;;21.60;4.65;;;15.00;99.90;;;;;;4149469;28;20536;-91
2021/08/14 04:21:34;;;;;;;22.95;5.38;;;15.00;99.90;;;;;;4149642;28;20248;-90
2021/08/14 04:23:35;;;;;;;22.95;4.57;;;15.00;99.90;;;;;;4133172;28;20661;-90
2021/08/14 04:25:35;;;;;;;26.13;5.25;;;14.90;99.90;;;;;;4149374;28;20215;-90
2021/08/14 04:27:36;;;;;;;21.95;5.07;;;15.00;99.90;;;;;;4133380;28;20177;-89
2021/08/14 04:29:37;;;;;;;14.98;4.45;;;15.00;99.90;;;;;;4149920;28;20215;-94
2021/08/14 04:31:38;;;;;;;23.17;5.20;;;15.10;99.90;;;;;;4133205;28;20733;-92
2021/08/14 04:33:38;;;;;;;21.45;4.60;;;15.10;99.90;;;;;;4149585;28;20564;-90
2021/08/14 04:35:39;;;;;;;18.00;4.47;;;15.10;99.90;;;;;;4149270;28;20204;-93
2021/08/14 04:37:40;;;;;;;20.83;3.90;;;15.10;99.90;;;;;;4149250;28;20179;-90
2021/08/14 04:39:41;;;;;;;20.35;4.30;;;15.10;99.90;;;;;;4149663;28;20177;-93
2021/08/14 04:41:41;;;;;;;27.27;5.13;;;15.20;99.90;;;;;;4149502;28;20195;-89
2021/08/14 04:43:42;;;;;;;22.67;4.72;;;15.20;99.90;;;;;;4132848;28;20658;-90
2021/08/14 04:45:43;;;;;;;17.95;4.35;;;15.20;99.90;;;;;;4148942;28;20189;-92
2021/08/14 04:47:44;;;;;;;20.58;4.90;;;15.20;99.90;;;;;;4132759;28;20188;-90
2021/08/14 04:49:44;;;;;;;22.83;4.57;;;15.30;99.90;;;;;;4132937;28;20165;-90
2021/08/14 04:51:45;;;;;;;23.50;4.68;;;15.30;99.90;;;;;;4148817;28;20653;-90
2021/08/14 04:53:46;;;;;;;19.48;4.43;;;15.50;99.90;;;;;;4148914;28;20223;-90
2021/08/14 04:55:47;;;;;;;23.40;5.18;;;15.50;99.90;;;;;;4148826;28;20665;-90
2021/08/14 04:57:47;;;;;;;22.98;4.95;;;15.50;99.90;;;;;;4149105;28;20287;-93
2021/08/14 04:59:48;;;;;;;31.33;5.22;;;15.50;99.90;;;;;;4148780;28;20165;-89
2021/08/14 05:01:49;;;;;;;20.25;5.07;;;15.50;99.90;;;;;;4148993;28;20180;-90
2021/08/14 05:03:49;;;;;;;26.73;5.20;;;15.60;99.90;;;;;;4148858;28;20260;-89
2021/08/14 05:05:50;;;;;;;24.52;5.47;;;15.70;99.90;;;;;;4132594;28;20241;-91
2021/08/14 05:07:51;;;;;;;16.58;4.28;;;15.80;99.90;;;;;;4148886;28;20169;-89
2021/08/14 05:09:53;;;;;;;25.35;5.00;;;15.90;99.90;;;;;;4148162;28;20177;-90
2021/08/14 05:11:53;;;;;;;21.10;5.07;;;15.80;99.90;;;;;;4148954;28;20169;-90
2021/08/14 05:13:54;;;;;;;19.90;4.38;;;15.90;99.90;;;;;;4132659;28;20272;-90
2021/08/14 05:15:55;;;;;;;29.02;5.25;;;15.90;99.90;;;;;;4148784;28;20266;-90
2021/08/14 05:17:55;;;;;;;29.83;5.00;;;16.00;99.90;;;;;;4132631;28;20310;-94
2021/08/14 05:19:56;;;;;;;20.73;4.55;;;16.10;99.90;;;;;;4148667;28;20173;-93
2021/08/14 05:21:57;;;;;;;21.95;5.22;;;16.10;99.90;;;;;;4132384;28;20185;-90
2021/08/14 05:23:58;;;;;;;22.80;5.00;;;16.10;99.90;;;;;;4148623;28;20195;-94
2021/08/14 05:25:58;;;;;;;26.35;5.55;;;16.10;99.90;;;;;;4132458;28;20186;-89
2021/08/14 05:28:00;;;;;;;21.13;4.50;;;16.10;99.90;;;;;;4148782;28;20176;-90
2021/08/14 05:30:00;;;;;;;21.95;5.05;;;16.20;99.90;;;;;;4132601;28;20557;-90
2021/08/14 05:32:01;;;;;;;25.30;4.80;;;16.20;99.90;;;;;;4148614;28;20193;-93
2021/08/14 05:34:04;;;;;;;17.77;4.80;;;16.20;99.90;;;;;;4132731;28;20260;-91
2021/08/14 05:36:08;;;;;;;25.23;4.93;;;16.20;99.90;;;;;;4148371;28;20221;-90
2021/08/14 05:38:08;;;;;;;18.88;4.35;;;16.20;99.90;;;;;;4148444;28;20173;-91
2021/08/14 05:40:10;;;;;;;21.95;4.80;;;16.30;99.90;;;;;;4148251;28;20173;-91
2021/08/14 05:42:10;;;;;;;22.45;4.85;;;16.20;99.90;;;;;;4132463;28;20187;-94
2021/08/14 05:44:11;;;;;;;24.90;5.45;;;16.20;99.90;;;;;;4148414;28;20200;-89
2021/08/14 05:46:12;;;;;;;23.23;4.82;;;16.30;99.90;;;;;;4132354;28;20208;-91
2021/08/14 05:48:12;;;;;;;27.65;5.00;;;16.30;99.90;;;;;;4148165;28;20280;-90
2021/08/14 05:50:13;;;;;;;22.00;5.03;;;16.20;99.90;;;;;;4132139;28;20665;-91
2021/08/14 05:52:14;;;;;;;18.85;4.60;;;16.20;99.90;;;;;;4148215;28;20184;-90
2021/08/14 05:54:16;;;;;;;16.48;4.57;;;16.30;99.90;;;;;;4132627;28;20202;-91
2021/08/14 05:56:16;;;;;;;28.25;5.43;;;16.40;99.90;;;;;;4131985;28;20308;-90
2021/08/14 05:58:17;;;;;;;25.15;4.65;;;16.40;99.90;;;;;;4148204;28;20188;-93
2021/08/14 06:00:18;;;;;;;17.83;4.90;;;16.40;99.90;;;;;;4132209;28;20196;-90
2021/08/14 06:02:18;;;;;;;23.92;5.07;;;16.40;99.90;;;;;;4148535;28;20172;-92
2021/08/14 06:04:19;;;;;;;17.40;4.65;;;16.40;99.90;;;;;;4148380;28;20169;-90
2021/08/14 06:06:20;;;;;;;19.63;4.53;;;16.50;99.90;;;;;;4148073;28;20196;-93
2021/08/14 06:08:20;;;;;;;19.70;4.78;;;16.40;99.90;;;;;;4131912;28;20205;-92
2021/08/14 06:10:21;;;;;;;25.48;5.13;;;16.40;99.90;;;;;;4148232;28;20736;-93
2021/08/14 06:12:22;;;;;;;27.20;5.55;;;16.50;99.90;;;;;;4131829;28;20685;-90
2021/08/14 06:14:22;;;;;;;26.25;5.18;;;16.60;99.90;;;;;;4148029;28;20568;-91
2021/08/14 06:16:23;;;;;;;26.02;5.47;;;16.80;99.90;;;;;;4131732;28;20271;-91
2021/08/14 06:18:24;;;;;;;21.48;4.68;;;16.90;99.90;;;;;;4148158;28;20244;-94
2021/08/14 06:20:27;;;;;;;29.65;5.45;;;17.00;99.90;;;;;;4148443;28;20207;-92
2021/08/14 06:22:27;;;;;;;34.40;5.03;;;17.20;99.90;;;;;;4151354;28;20557;-91
2021/08/14 06:24:28;;;;;;;26.38;5.63;;;17.30;99.90;;;;;;4151547;28;20169;-94
2021/08/14 06:26:29;;;;;;;25.90;4.88;;;17.30;99.90;;;;;;4135065;28;20550;-90
2021/08/14 06:28:31;;;;;;;24.13;5.30;;;17.30;99.90;;;;;;4151369;28;20193;-90
2021/08/14 06:30:32;;;;;;;20.13;4.70;;;17.20;99.90;;;;;;4151340;28;20556;-90
2021/08/14 06:32:33;;;;;;;27.92;5.97;;;17.30;99.90;;;;;;4167514;28;20203;-91
2021/08/14 06:34:34;;;;;;;28.73;5.30;;;17.40;99.90;;;;;;4151175;28;20169;-90
2021/08/14 06:36:35;;;;;;;18.63;4.60;;;17.50;99.90;;;;;;4167592;28;20215;-89
2021/08/14 06:38:36;;;;;;;16.67;4.80;;;17.60;99.90;;;;;;4151275;28;20173;-94
2021/08/14 06:40:37;;;;;;;27.20;5.07;;;17.60;99.90;;;;;;4135017;28;20204;-92
2021/08/14 06:42:38;;;;;;;18.58;4.72;;;17.60;99.90;;;;;;4150979;28;20173;-93
2021/08/14 06:44:39;;;;;;;18.95;4.32;;;17.80;99.90;;;;;;4135001;28;20189;-90
2021/08/14 06:46:39;;;;;;;24.95;5.53;;;17.80;99.90;;;;;;4134774;28;20190;-93
2021/08/14 06:48:40;;;;;;;24.73;5.03;;;17.90;99.90;;;;;;4150939;28;20641;-89
2021/08/14 06:50:41;;;;;;;18.38;5.22;;;18.00;99.90;;;;;;4151064;28;20644;-89
2021/08/14 06:52:42;;;;;;;21.00;5.45;;;18.00;99.90;;;;;;4134815;28;20193;-90
2021/08/14 06:54:42;;;;;;;22.05;5.32;;;18.00;99.90;;;;;;4151174;28;20181;-90
2021/08/14 06:56:43;;;;;;;23.75;5.20;;;18.00;99.90;;;;;;4134583;28;20324;-90
2021/08/14 06:58:44;;;;;;;22.67;5.78;;;18.10;99.90;;;;;;4167229;28;20214;-90
2021/08/14 07:00:44;;;;;;;22.95;6.30;;;18.00;99.90;;;;;;4134680;28;20538;-90
2021/08/14 07:02:45;;;;;;;28.40;6.78;;;18.20;99.90;;;;;;4150619;28;20179;-89
2021/08/14 07:04:46;;;;;;;26.15;6.43;;;18.40;99.90;;;;;;4134605;28;20637;-90
2021/08/14 07:06:46;;;;;;;22.00;5.88;;;18.50;99.90;;;;;;4167035;28;20199;-89
2021/08/14 07:08:47;;;;;;;20.85;5.63;;;18.50;99.90;;;;;;4150708;28;20240;-89
2021/08/14 07:10:48;;;;;;;23.35;5.93;;;18.60;99.90;;;;;;4150767;28;20175;-89
2021/08/14 07:12:48;;;;;;;21.65;5.60;;;18.60;99.90;;;;;;4134678;28;20169;-94
2021/08/14 07:14:49;;;;;;;25.17;6.40;;;18.70;99.90;;;;;;4150969;28;20177;-90
2021/08/14 07:16:50;;;;;;;25.25;5.93;;;19.00;99.90;;;;;;4134371;28;20271;-91
2021/08/14 07:18:50;;;;;;;19.08;5.60;;;19.70;99.90;;;;;;4150519;28;20176;-90
2021/08/14 07:20:51;;;;;;;18.63;5.13;;;21.40;99.90;;;;;;4134271;28;20173;-89
2021/08/14 07:22:52;;;;;;;22.67;5.05;;;23.20;99.90;;;;;;4166607;28;20168;-94
2021/08/14 07:24:52;;;;;;;16.80;4.93;;;25.00;99.90;;;;;;4150263;28;20209;-95
2021/08/14 07:26:53;;;;;;;18.65;5.80;;;26.00;99.90;;;;;;4150392;28;20216;-95
2021/08/14 07:28:54;;;;;;;14.95;4.35;;;27.00;99.90;;;;;;4135354;28;20182;-92
2021/08/14 07:30:55;;;;;;;18.60;5.18;;;27.90;99.90;;;;;;4134176;28;20256;-91
2021/08/14 07:32:55;;;;;;;18.75;4.82;;;28.90;99.90;;;;;;4149243;28;20164;-93
2021/08/14 07:34:56;;;;;;;15.35;4.95;;;29.70;99.90;;;;;;4150162;28;20175;-91
2021/08/14 07:36:57;;;;;;;18.98;6.13;;;30.10;99.90;;;;;;4134304;28;20334;-84
2021/08/14 07:38:58;;;;;;;16.30;5.05;;;30.20;99.90;;;;;;4134064;28;20223;-90
2021/08/14 07:40:59;;;;;;;21.50;5.65;;;30.40;99.90;;;;;;4150273;28;20169;-88
2021/08/14 07:42:59;;;;;;;21.02;5.32;;;30.50;99.90;;;;;;4150272;28;20277;-87
2021/08/14 07:45:00;;;;;;;18.67;6.13;;;30.80;99.90;;;;;;4150049;28;20227;-92
2021/08/14 07:47:01;;;;;;;15.15;5.22;;;31.00;99.90;;;;;;4150053;28;20227;-90
2021/08/14 07:49:02;;;;;;;22.40;5.78;;;30.90;99.90;;;;;;4150362;28;20180;-94
2021/08/14 07:51:02;;;;;;;19.60;5.43;;;30.40;99.90;;;;;;4134144;28;20669;-90
2021/08/14 07:53:04;;;;;;;18.75;4.88;;;30.30;99.90;;;;;;4150096;28;20220;-91
2021/08/14 07:55:05;;;;;;;21.48;5.85;;;30.20;99.90;;;;;;4149923;28;20161;-89
2021/08/14 07:57:06;;;;;;;21.60;5.70;;;30.50;99.90;;;;;;4133914;28;20561;-93
2021/08/14 07:59:06;;;;;;;17.10;5.75;;;29.70;99.90;;;;;;4149860;28;20180;-89
2021/08/14 08:01:07;;;;;;;20.92;5.18;;;29.70;99.90;;;;;;4149942;28;20601;-91
2021/08/14 08:03:09;;;;;;;18.65;4.95;;;29.90;99.90;;;;;;4149627;28;20769;-91
2021/08/14 08:05:12;;;;;;;20.90;5.90;;;30.50;99.90;;;;;;4149843;28;20177;-87
2021/08/14 08:07:13;;;;;;;26.80;6.45;;;31.00;99.90;;;;;;4150362;28;20169;-94
2021/08/14 08:09:13;;;;;;;19.35;6.10;;;30.80;99.90;;;;;;4150947;28;20184;-83
2021/08/14 08:11:15;;;;;;;21.98;5.80;;;30.40;99.90;;;;;;4151864;28;20231;-90
2021/08/14 08:13:16;;;;;;;20.60;5.65;;;30.40;99.90;;;;;;4149369;28;20177;-85
2021/08/14 08:15:17;;;;;;;17.33;5.22;;;30.70;99.90;;;;;;4133233;28;20188;-84
2021/08/14 08:17:17;;;;;;;18.38;5.63;;;30.40;99.90;;;;;;4149127;28;20279;-84
2021/08/14 08:19:18;;;;;;;20.15;5.50;;;30.40;99.90;;;;;;4132936;28;20559;-85
2021/08/14 08:21:18;;;;;;;22.08;5.45;;;30.90;99.90;;;;;;4149083;28;20177;-86
2021/08/14 08:23:19;;;;;;;19.50;5.75;;;31.40;99.90;;;;;;4149158;28;20537;-86
2021/08/14 08:25:21;;;;;;;15.18;5.72;;;31.20;99.90;;;;;;4148923;28;20171;-92
2021/08/14 08:27:22;;;;;;;18.55;5.43;;;31.40;99.90;;;;;;4133090;28;20177;-87
2021/08/14 08:29:23;;;;;;;19.25;6.35;;;31.70;99.90;;;;;;4149033;28;20173;-87
2021/08/14 08:31:25;;;;;;;18.63;5.90;;;31.20;99.90;;;;;;4133559;28;20211;-86
2021/08/14 08:33:25;;;;;;;17.83;5.82;;;30.80;99.90;;;;;;4149406;28;20176;-91
2021/08/14 08:35:26;;;;;;;17.02;5.88;;;30.50;99.90;;;;;;4149475;28;20693;-87
2021/08/14 08:37:27;;;;;;;17.80;5.50;;;30.30;99.90;;;;;;4148834;28;20255;-87
2021/08/14 08:39:28;;;;;;;17.80;5.72;;;30.90;99.90;;;;;;4132912;28;20217;-87
2021/08/14 08:41:30;;;;;;;19.20;5.70;;;30.70;99.90;;;;;;4149022;28;20267;-86
2021/08/14 08:43:32;;;;;;;18.83;6.35;;;30.90;99.90;;;;;;4148950;28;20271;-86
2021/08/14 08:45:33;;;;;;;17.25;6.18;;;31.40;99.90;;;;;;4149436;28;20192;-86
2021/08/14 08:47:38;;;;;;;20.70;5.55;;;31.60;99.90;;;;;;4148921;28;20172;-86
2021/08/14 08:49:49;;;;;;;16.27;5.68;;;31.10;99.90;;;;;;4149104;28;20180;-86
2021/08/14 08:51:50;;;;;;;20.58;5.60;;;31.00;99.90;;;;;;4132671;28;20170;-87
2021/08/14 08:53:51;;;;;;;20.25;5.63;;;31.10;99.90;;;;;;4149438;28;20187;-87
2021/08/14 08:55:53;;;;;;;21.25;5.10;;;30.30;99.90;;;;;;4148945;28;20227;-87
2021/08/14 08:57:57;;;;;;;17.02;5.10;;;30.40;99.90;;;;;;4149119;28;20184;-88
2021/08/14 08:59:58;;;;;;;15.90;5.63;;;30.80;99.90;;;;;;4149213;28;20176;-95
2021/08/14 09:01:59;;;;;;;16.65;5.30;;;30.90;99.90;;;;;;4165195;28;20252;-88
2021/08/14 09:04:28;;;;;;;20.60;5.80;;;30.80;99.90;;;;;;4148752;28;20177;-94
2021/08/14 09:06:41;;;;;;;21.15;5.70;;;30.20;99.90;;;;;;4149031;28;20542;-87
2021/08/14 09:09:03;;;;;;;18.38;5.40;;;30.20;99.90;;;;;;4148892;28;20172;-86
2021/08/14 09:11:14;;;;;;;18.50;5.60;;;30.60;99.90;;;;;;4132534;28;20181;-86
2021/08/14 09:13:20;;;;;;;17.45;6.00;;;30.50;99.90;;;;;;4149210;28;20176;-88
2021/08/14 09:15:32;;;;;;;17.35;5.13;;;30.60;99.90;;;;;;4148628;28;20341;-87
2021/08/14 09:17:32;;;;;;;18.30;4.85;;;30.30;99.90;;;;;;4148630;28;20227;-89
2021/08/14 09:19:34;;;;;;;20.55;4.90;;;29.80;99.90;;;;;;4165209;28;20176;-90
2021/08/14 09:21:39;;;;;;;18.02;5.13;;;29.50;99.90;;;;;;4148817;28;20165;-96
2021/08/14 09:23:41;;;;;;;15.82;5.20;;;29.70;99.90;;;;;;4148705;28;20211;-87
2021/08/14 09:25:43;;;;;;;16.85;5.13;;;30.50;99.90;;;;;;4148586;28;20193;-85
2021/08/14 09:27:55;;;;;;;16.33;5.00;;;30.60;99.90;;;;;;4164911;28;20168;-87
2021/08/14 09:29:56;;;;;;;13.63;4.28;;;30.50;99.90;;;;;;4164984;28;20176;-88
2021/08/14 09:31:57;;;;;;;18.40;5.78;;;30.70;99.90;;;;;;4148534;28;20252;-86
2021/08/14 09:34:17;;;;;;;14.07;4.40;;;31.00;99.90;;;;;;4148433;28;20597;-87
2021/08/14 09:36:20;;;;;;;17.05;5.10;;;31.00;99.90;;;;;;4148410;28;20216;-87
2021/08/14 09:38:22;;;;;;;19.58;5.22;;;30.80;99.90;;;;;;4148319;28;20176;-88
2021/08/14 09:40:37;;;;;;;14.80;5.40;;;30.90;99.90;;;;;;4149578;28;20208;-87
2021/08/14 09:42:52;;;;;;;16.65;5.25;;;30.90;99.90;;;;;;4148154;28;20190;-91
2021/08/14 09:45:18;;;;;;;15.13;4.80;;;30.60;99.90;;;;;;4148140;28;20169;-92
2021/08/14 09:47:35;;;;;;;16.92;4.93;;;31.30;99.90;;;;;;4164253;28;20221;-88
2021/08/14 09:49:54;;;;;;;15.25;4.82;;;31.30;99.90;;;;;;4148569;28;20176;-93
2021/08/14 09:51:55;;;;;;;15.45;5.10;;;31.90;99.90;;;;;;4148957;28;20190;-88
2021/08/14 09:53:56;;;;;;;20.08;5.55;;;31.60;99.90;;;;;;4148292;28;20744;-87
2021/08/14 09:56:07;;;;;;;17.75;4.90;;;31.80;99.90;;;;;;4147570;28;20695;-87
2021/08/14 09:58:12;;;;;;;15.88;5.03;;;31.60;99.90;;;;;;4131860;28;20192;-87
2021/08/14 10:00:13;;;;;;;15.57;5.22;;;31.40;99.90;;;;;;4148407;28;20649;-87
2021/08/14 10:02:36;;;;;;;18.20;4.80;;;31.40;99.90;;;;;;4148253;28;20176;-87
2021/08/14 10:04:36;;;;;;;9.02;4.32;;;31.40;99.90;;;;;;4148508;28;20179;-87
2021/08/14 10:06:39;;;;;;;13.23;4.60;;;31.00;99.90;;;;;;4164583;28;20688;-86
2021/08/14 10:08:40;;;;;;;15.45;5.22;;;31.30;99.90;;;;;;4148127;28;20181;-88
2021/08/14 10:10:42;;;;;;;21.58;5.75;;;30.60;99.90;;;;;;4148218;28;20173;-85
2021/08/14 10:12:45;;;;;;;15.32;5.22;;;30.30;99.90;;;;;;4147782;28;20180;-87
2021/08/14 10:14:47;;;;;;;12.75;4.82;;;30.00;99.90;;;;;;4147988;28;20699;-85
2021/08/14 10:16:48;;;;;;;17.98;5.57;;;30.10;99.90;;;;;;4147448;28;20205;-86
2021/08/14 10:18:48;;;;;;;15.10;5.10;;;30.20;99.90;;;;;;4147911;28;20183;-87
2021/08/14 10:20:49;;;;;;;16.70;5.18;;;30.80;99.90;;;;;;4147923;28;20169;-86
2021/08/14 10:23:02;;;;;;;15.25;4.88;;;30.70;99.90;;;;;;4132061;28;20634;-86
2021/08/14 10:25:04;;;;;;;16.77;5.10;;;30.40;99.90;;;;;;4132033;28;20700;-89